Time;durP1;ratioP1;P1;durP2;ratioP2;P2;SDS_P1;SDS_P2;PMS_P1;PMS_P2;Temp;Humidity;BMP_temperature;BMP_pressure;BME280_temperature;BME280_humidity;BME280_pressure;Samples;Min_cycle;Max_cycle;Signal;HPM_P1;HPM_P2
2022/02/25 00:01:58;;;;;;;0.68;0.30;;;3.50;83.10;;;;;;5073609;28;20512;-82
2022/02/25 00:04:24;;;;;;;0.75;0.43;;;3.50;83.30;;;;;;5073461;28;20098;-82
2022/02/25 00:06:49;;;;;;;0.95;0.50;;;3.50;82.20;;;;;;5055862;28;20407;-81
2022/02/25 00:09:15;;;;;;;0.65;0.38;;;3.50;81.50;;;;;;5073450;28;20362;-83
2022/02/25 00:11:40;;;;;;;1.83;0.38;;;3.40;81.40;;;;;;5073901;28;20063;-83
2022/02/25 00:14:06;;;;;;;2.42;0.50;;;3.20;81.00;;;;;;5055349;28;20020;-83
2022/02/25 00:16:31;;;;;;;0.80;0.20;;;3.00;81.80;;;;;;5055366;28;20033;-81
2022/02/25 00:18:58;;;;;;;2.05;0.50;;;3.00;79.90;;;;;;5073354;28;20127;-82
2022/02/25 00:21:24;;;;;;;1.40;0.30;;;3.00;78.60;;;;;;5055795;28;20075;-83
2022/02/25 00:23:50;;;;;;;1.35;0.30;;;2.90;78.90;;;;;;5055536;28;20416;-83
2022/02/25 00:26:15;;;;;;;5.82;0.75;;;2.70;77.00;;;;;;5072164;28;20068;-83
2022/02/25 00:28:41;;;;;;;2.38;0.22;;;2.70;77.50;;;;;;5055757;28;20116;-83
2022/02/25 00:31:07;;;;;;;3.53;0.68;;;2.60;78.30;;;;;;5055045;28;20063;-83
2022/02/25 00:33:32;;;;;;;1.27;0.30;;;2.50;79.20;;;;;;5072003;28;20044;-83
2022/02/25 00:35:58;;;;;;;5.22;0.22;;;2.30;78.90;;;;;;5073427;28;20474;-83
2022/02/25 00:38:23;;;;;;;1.80;0.32;;;2.30;79.50;;;;;;5055718;28;20119;-82
2022/02/25 00:40:49;;;;;;;0.98;0.20;;;2.30;78.50;;;;;;5056440;28;20103;-83
2022/02/25 00:43:14;;;;;;;2.42;0.30;;;2.40;78.80;;;;;;5079846;28;20020;-84
2022/02/25 00:45:40;;;;;;;1.65;0.40;;;2.40;78.10;;;;;;5068635;28;20038;-82
2022/02/25 00:48:06;;;;;;;1.10;0.30;;;2.40;78.10;;;;;;5089340;28;20021;-82
2022/02/25 00:50:31;;;;;;;3.80;0.80;;;2.30;78.70;;;;;;5056322;28;20064;-83
2022/02/25 00:52:57;;;;;;;2.22;0.43;;;2.30;78.60;;;;;;5055600;28;20067;-82
2022/02/25 00:55:23;;;;;;;1.25;0.47;;;2.20;79.40;;;;;;5074301;28;20029;-82
2022/02/25 00:57:50;;;;;;;1.02;0.35;;;2.10;79.70;;;;;;5058804;28;20396;-82
2022/02/25 01:00:19;;;;;;;3.67;0.52;;;2.10;79.50;;;;;;5076614;28;20065;-81
2022/02/25 01:02:44;;;;;;;5.68;0.50;;;1.90;79.40;;;;;;5059178;28;20044;-81
2022/02/25 01:05:10;;;;;;;1.75;0.40;;;1.90;79.90;;;;;;5058751;28;20025;-82
2022/02/25 01:07:40;;;;;;;2.72;0.38;;;1.80;80.20;;;;;;5076325;28;20025;-82
2022/02/25 01:10:08;;;;;;;3.90;0.50;;;1.80;81.20;;;;;;5058386;28;20031;-82
2022/02/25 01:12:34;;;;;;;1.70;0.63;;;1.90;80.80;;;;;;5058611;28;20234;-83
2022/02/25 01:15:00;;;;;;;5.50;0.77;;;2.00;80.00;;;;;;5058440;28;20166;-82
2022/02/25 01:17:29;;;;;;;3.55;0.55;;;2.10;79.20;;;;;;5058371;28;20388;-82
2022/02/25 01:19:56;;;;;;;8.40;0.60;;;2.20;79.60;;;;;;5058478;28;20108;-83
2022/02/25 01:22:21;;;;;;;2.85;0.45;;;2.30;78.80;;;;;;5058201;28;20027;-83
2022/02/25 01:24:47;;;;;;;2.00;0.60;;;2.40;78.20;;;;;;5058273;28;20223;-83
2022/02/25 01:27:12;;;;;;;1.10;0.45;;;2.30;79.20;;;;;;5076204;28;20031;-82
2022/02/25 01:29:38;;;;;;;2.55;0.65;;;2.40;78.80;;;;;;5057755;28;20076;-81
2022/02/25 01:32:04;;;;;;;6.45;0.57;;;2.30;78.20;;;;;;5058251;28;20032;-81
2022/02/25 01:34:30;;;;;;;5.82;0.60;;;2.20;78.80;;;;;;5057931;28;20021;-80
2022/02/25 01:36:55;;;;;;;4.45;0.55;;;2.20;79.20;;;;;;5076036;28;20515;-80
2022/02/25 01:39:21;;;;;;;2.40;0.50;;;2.10;79.10;;;;;;5058181;28;20457;-80
2022/02/25 01:41:46;;;;;;;4.30;0.63;;;1.90;79.90;;;;;;5058104;28;20093;-80
2022/02/25 01:44:19;;;;;;;2.65;0.60;;;2.00;80.40;;;;;;5057897;28;20027;-80
2022/02/25 01:46:49;;;;;;;3.83;0.60;;;2.00;80.30;;;;;;5075894;28;20116;-80
2022/02/25 01:49:15;;;;;;;3.25;0.90;;;2.10;79.50;;;;;;5057762;28;20024;-82
2022/02/25 01:51:41;;;;;;;1.30;0.50;;;2.20;78.80;;;;;;5057782;28;20037;-81
2022/02/25 01:54:07;;;;;;;6.93;1.08;;;2.30;78.60;;;;;;5057559;28;20111;-81
2022/02/25 01:56:34;;;;;;;5.05;0.80;;;2.30;78.00;;;;;;5075726;28;20035;-84
2022/02/25 01:59:01;;;;;;;2.28;0.70;;;2.40;77.20;;;;;;5075777;28;20017;-83
2022/02/25 02:01:26;;;;;;;7.63;0.88;;;2.40;76.70;;;;;;5058084;28;20030;-81
2022/02/25 02:03:55;;;;;;;5.07;1.55;;;2.40;76.80;;;;;;5074596;28;20021;-82
2022/02/25 02:06:36;;;;;;;2.95;0.85;;;2.50;77.00;;;;;;5058130;28;20024;-82
2022/02/25 02:09:03;;;;;;;6.85;1.13;;;2.60;76.90;;;;;;5057546;28;20461;-83
2022/02/25 02:11:40;;;;;;;6.15;0.95;;;2.50;76.20;;;;;;5075335;28;20033;-83
2022/02/25 02:14:12;;;;;;;2.45;1.25;;;2.50;76.10;;;;;;5075284;28;20024;-82
2022/02/25 02:16:39;;;;;;;5.47;1.00;;;2.50;76.30;;;;;;5075220;28;20023;-84
2022/02/25 02:19:04;;;;;;;5.57;0.93;;;2.50;76.50;;;;;;5057271;28;20079;-82
2022/02/25 02:21:31;;;;;;;2.90;0.60;;;2.50;76.50;;;;;;5074882;28;20032;-84
2022/02/25 02:23:59;;;;;;;2.05;0.40;;;2.50;76.50;;;;;;5058351;28;20439;-84
2022/02/25 02:26:26;;;;;;;5.30;0.65;;;2.50;76.60;;;;;;5057780;28;20032;-83
2022/02/25 02:28:52;;;;;;;7.03;1.02;;;2.40;76.70;;;;;;5076690;28;20021;-83
2022/02/25 02:31:18;;;;;;;2.65;0.70;;;2.40;76.90;;;;;;5056869;28;20105;-84
2022/02/25 02:33:44;;;;;;;9.38;0.90;;;2.40;76.80;;;;;;5074927;28;20013;-84
2022/02/25 02:36:10;;;;;;;3.85;0.60;;;2.50;76.40;;;;;;5056889;28;20021;-84
2022/02/25 02:38:37;;;;;;;5.07;0.63;;;2.50;75.60;;;;;;5056965;28;20021;-84
2022/02/25 02:41:05;;;;;;;5.53;1.08;;;2.50;75.30;;;;;;5074682;28;20377;-84
2022/02/25 02:43:31;;;;;;;2.00;0.60;;;2.50;74.80;;;;;;5056629;28;20024;-83
2022/02/25 02:45:56;;;;;;;4.97;1.13;;;2.40;75.00;;;;;;5056667;28;20159;-82
2022/02/25 02:48:23;;;;;;;5.32;1.00;;;2.30;75.40;;;;;;5074539;28;20477;-83
2022/02/25 02:50:48;;;;;;;2.42;0.80;;;2.30;75.20;;;;;;5056197;28;20032;-82
2022/02/25 02:53:14;;;;;;;5.85;1.00;;;2.30;74.90;;;;;;5073431;28;20127;-82
2022/02/25 02:55:41;;;;;;;4.60;1.00;;;2.20;75.50;;;;;;5056329;28;20380;-80
2022/02/25 02:58:08;;;;;;;3.55;1.17;;;2.10;75.70;;;;;;5074382;28;20055;-81
2022/02/25 03:00:33;;;;;;;3.60;0.93;;;2.10;75.70;;;;;;5074144;28;20028;-82
2022/02/25 03:02:59;;;;;;;3.38;0.95;;;2.00;75.70;;;;;;5056250;28;20063;-84
2022/02/25 03:05:25;;;;;;;6.00;1.05;;;2.10;76.00;;;;;;5073044;28;20031;-82
2022/02/25 03:07:50;;;;;;;1.70;0.55;;;2.00;76.10;;;;;;5056199;28;20017;-82
2022/02/25 03:10:16;;;;;;;7.80;1.05;;;2.00;76.10;;;;;;5072903;28;20040;-83
2022/02/25 03:12:42;;;;;;;3.83;0.82;;;2.00;76.00;;;;;;5073047;28;20028;-84
2022/02/25 03:15:09;;;;;;;7.57;0.82;;;2.00;75.90;;;;;;5056328;28;20024;-84
2022/02/25 03:17:37;;;;;;;3.67;0.90;;;2.10;76.20;;;;;;5055598;28;20032;-83
2022/02/25 03:20:04;;;;;;;3.90;0.60;;;2.10;76.10;;;;;;5073895;28;20020;-84
2022/02/25 03:22:29;;;;;;;2.60;1.02;;;2.10;76.00;;;;;;5056097;28;20473;-83
2022/02/25 03:24:56;;;;;;;3.70;0.52;;;2.20;76.50;;;;;;5052548;28;20111;-83
2022/02/25 03:27:22;;;;;;;1.77;0.70;;;2.20;77.10;;;;;;5053914;28;20437;-84
2022/02/25 03:29:47;;;;;;;1.88;0.60;;;2.20;77.10;;;;;;5053973;28;20052;-84
2022/02/25 03:32:13;;;;;;;4.63;0.88;;;2.20;77.30;;;;;;5052795;28;20473;-83
2022/02/25 03:34:39;;;;;;;3.05;0.80;;;2.10;77.40;;;;;;5052526;28;20366;-84
2022/02/25 03:37:05;;;;;;;3.65;0.88;;;2.10;77.50;;;;;;5054069;28;20029;-83
2022/02/25 03:39:31;;;;;;;2.50;0.75;;;2.20;77.50;;;;;;5052598;28;20071;-83
2022/02/25 03:41:57;;;;;;;4.35;0.88;;;2.10;77.40;;;;;;5055313;28;20020;-84
2022/02/25 03:44:22;;;;;;;3.67;0.90;;;2.10;77.30;;;;;;5077087;28;20048;-82
2022/02/25 03:46:48;;;;;;;5.95;0.75;;;2.10;77.30;;;;;;5057931;28;20025;-82
2022/02/25 03:49:15;;;;;;;3.20;0.90;;;2.20;77.10;;;;;;5053740;28;20056;-83
2022/02/25 03:51:40;;;;;;;3.30;1.00;;;2.10;77.00;;;;;;5052377;28;20029;-85
2022/02/25 03:54:06;;;;;;;2.92;0.80;;;2.20;77.00;;;;;;5052692;28;20032;-85
2022/02/25 03:56:31;;;;;;;5.95;1.70;;;2.20;77.10;;;;;;5052386;28;20473;-85
2022/02/25 03:58:57;;;;;;;2.22;0.60;;;2.20;77.00;;;;;;5069098;28;20067;-84
2022/02/25 04:01:24;;;;;;;5.80;0.80;;;2.20;76.70;;;;;;5053609;28;20040;-84
2022/02/25 04:03:50;;;;;;;5.85;1.17;;;2.20;76.80;;;;;;5053409;28;20025;-82
2022/02/25 04:06:15;;;;;;;6.75;1.08;;;2.20;76.80;;;;;;5052230;28;20060;-83
2022/02/25 04:08:42;;;;;;;5.28;1.35;;;2.10;76.90;;;;;;5053139;28;20029;-82
2022/02/25 04:11:09;;;;;;;8.25;2.13;;;2.10;77.00;;;;;;5052080;28;20237;-82
2022/02/25 04:13:35;;;;;;;6.35;1.20;;;2.00;77.40;;;;;;5068837;28;20477;-82
2022/02/25 04:16:00;;;;;;;10.32;2.40;;;2.00;77.50;;;;;;5053142;28;20036;-82
2022/02/25 04:18:27;;;;;;;9.75;1.77;;;2.00;77.80;;;;;;5053115;28;20025;-81
2022/02/25 04:20:53;;;;;;;8.27;2.03;;;1.90;78.10;;;;;;5053104;28;20474;-82
2022/02/25 04:23:18;;;;;;;6.72;1.70;;;1.90;78.30;;;;;;5053276;28;20036;-82
2022/02/25 04:25:44;;;;;;;4.57;1.60;;;1.90;78.30;;;;;;5073252;28;20090;-82
2022/02/25 04:28:09;;;;;;;4.53;1.15;;;1.90;78.50;;;;;;5074059;28;20024;-84
2022/02/25 04:30:35;;;;;;;6.30;1.20;;;1.90;78.50;;;;;;5058591;28;20480;-83
2022/02/25 04:33:00;;;;;;;9.07;2.20;;;1.80;78.50;;;;;;5077396;28;20385;-83
2022/02/25 04:35:26;;;;;;;6.07;1.65;;;1.70;78.80;;;;;;5059133;28;20469;-83
2022/02/25 04:37:51;;;;;;;6.78;1.25;;;1.60;78.90;;;;;;5076970;28;20091;-82
2022/02/25 04:40:17;;;;;;;6.82;1.55;;;1.50;79.00;;;;;;5058905;28;20021;-80
2022/02/25 04:42:43;;;;;;;5.32;1.20;;;1.50;79.40;;;;;;5076720;28;20024;-81
2022/02/25 04:45:09;;;;;;;6.13;1.40;;;1.50;79.60;;;;;;5059279;28;20020;-80
2022/02/25 04:47:35;;;;;;;4.95;1.38;;;1.50;79.70;;;;;;5058821;28;20067;-80
2022/02/25 04:50:02;;;;;;;5.38;1.65;;;1.60;79.80;;;;;;5058843;28;20068;-85
2022/02/25 04:52:27;;;;;;;6.10;1.42;;;1.60;79.80;;;;;;5058680;28;20115;-84
2022/02/25 04:54:54;;;;;;;6.75;1.52;;;1.60;79.70;;;;;;5059048;28;20059;-85
2022/02/25 04:57:19;;;;;;;6.07;1.73;;;1.60;79.50;;;;;;5076592;28;20024;-85
2022/02/25 04:59:45;;;;;;;8.23;1.83;;;1.70;79.40;;;;;;5058700;28;20028;-84
2022/02/25 05:02:10;;;;;;;8.30;1.92;;;1.50;79.50;;;;;;5058915;28;20065;-84
2022/02/25 05:04:36;;;;;;;2.90;1.42;;;1.40;79.60;;;;;;5076900;28;20052;-84
2022/02/25 05:07:03;;;;;;;6.03;1.70;;;1.40;79.70;;;;;;5076695;28;20020;-83
2022/02/25 05:09:29;;;;;;;9.93;2.22;;;1.40;79.40;;;;;;5058418;28;20028;-82
2022/02/25 05:11:54;;;;;;;12.75;2.70;;;1.50;79.40;;;;;;5076158;28;20055;-82
2022/02/25 05:22:33;;;;;;;7.47;2.30;;;1.60;77.00;;;;;;5076389;28;20043;-83
2022/02/25 05:24:58;;;;;;;5.32;1.88;;;1.60;77.30;;;;;;5058164;28;20435;-83
2022/02/25 05:27:24;;;;;;;7.88;1.85;;;1.60;77.50;;;;;;5076042;28;20054;-83
2022/02/25 05:29:49;;;;;;;15.02;1.85;;;1.60;76.80;;;;;;5058069;28;20044;-84
2022/02/25 05:32:15;;;;;;;13.35;3.17;;;1.60;76.00;;;;;;5058302;28;20024;-85
2022/02/25 05:34:41;;;;;;;8.88;1.67;;;1.60;75.90;;;;;;5057876;28;20393;-85
2022/02/25 05:37:07;;;;;;;20.67;1.70;;;1.70;74.10;;;;;;5058300;28;20027;-85
2022/02/25 05:39:33;;;;;;;8.82;1.52;;;1.70;73.30;;;;;;5058019;28;20025;-85
2022/02/25 05:41:58;;;;;;;7.80;1.33;;;1.70;72.60;;;;;;5057730;28;20025;-83
2022/02/25 05:44:24;;;;;;;9.90;1.65;;;1.60;72.50;;;;;;5058686;28;20400;-84
2022/02/25 05:46:49;;;;;;;10.38;2.13;;;1.60;72.60;;;;;;5076389;28;20032;-82
2022/02/25 05:49:15;;;;;;;7.82;2.42;;;1.70;72.50;;;;;;5075866;28;20162;-85
2022/02/25 05:51:41;;;;;;;9.43;1.88;;;1.70;72.70;;;;;;5070572;28;20073;-84
2022/02/25 05:54:06;;;;;;;11.10;1.65;;;1.70;72.10;;;;;;5057063;28;20024;-83
2022/02/25 05:56:32;;;;;;;12.48;1.95;;;1.80;71.40;;;;;;5057452;28;20119;-85
2022/02/25 05:58:58;;;;;;;11.20;2.55;;;1.80;71.70;;;;;;5076060;28;20044;-85
2022/02/25 06:01:23;;;;;;;11.43;2.42;;;1.80;72.00;;;;;;5075965;28;20021;-84
2022/02/25 06:03:49;;;;;;;3.35;1.17;;;1.80;72.30;;;;;;5057833;28;20497;-84
2022/02/25 06:06:15;;;;;;;4.70;1.50;;;1.80;72.20;;;;;;5075426;28;20017;-83
2022/02/25 06:08:41;;;;;;;6.68;1.48;;;1.80;72.00;;;;;;5057575;28;20021;-84
2022/02/25 06:11:06;;;;;;;6.22;2.00;;;1.80;71.90;;;;;;5074542;28;20029;-85
2022/02/25 06:13:32;;;;;;;9.75;2.55;;;1.80;72.50;;;;;;5057802;28;20034;-84
2022/02/25 06:15:58;;;;;;;9.82;2.72;;;1.80;72.80;;;;;;5074232;28;20052;-85
2022/02/25 06:18:23;;;;;;;6.50;1.60;;;1.70;74.40;;;;;;5057294;28;20488;-83
2022/02/25 06:20:49;;;;;;;5.70;1.83;;;1.70;74.00;;;;;;5075024;28;20050;-83
2022/02/25 06:23:15;;;;;;;10.57;1.80;;;1.60;74.70;;;;;;5076058;28;20032;-85
2022/02/25 06:25:41;;;;;;;11.40;2.60;;;1.60;75.60;;;;;;5074536;28;20090;-84
2022/02/25 06:28:07;;;;;;;10.63;1.88;;;1.60;75.80;;;;;;5075057;28;20103;-83
2022/02/25 06:30:33;;;;;;;5.45;2.00;;;1.60;75.70;;;;;;5057154;28;20032;-84
2022/02/25 06:32:58;;;;;;;13.32;1.80;;;1.60;75.90;;;;;;5074408;28;20028;-84
2022/02/25 06:35:28;;;;;;;7.50;2.05;;;1.60;76.10;;;;;;5057095;28;20028;-87
2022/02/25 06:37:55;;;;;;;7.20;1.98;;;1.60;76.30;;;;;;5075619;28;20036;-88
2022/02/25 06:40:20;;;;;;;8.82;2.35;;;1.60;76.40;;;;;;5075358;28;20095;-84
2022/02/25 06:42:46;;;;;;;8.82;2.60;;;1.60;76.60;;;;;;5074909;28;20547;-85
2022/02/25 06:45:12;;;;;;;4.82;1.63;;;1.50;76.90;;;;;;5073688;28;20093;-87
2022/02/25 06:47:38;;;;;;;8.65;1.92;;;1.60;76.90;;;;;;5076525;28;20056;-88
2022/02/25 06:50:04;;;;;;;5.13;1.63;;;1.60;77.60;;;;;;5058564;28;20024;-86
2022/02/25 06:52:30;;;;;;;8.40;1.75;;;1.70;77.60;;;;;;5074933;28;20098;-89
2022/02/25 06:54:55;;;;;;;7.45;1.77;;;1.70;77.20;;;;;;5057870;28;20493;-85
2022/02/25 06:57:21;;;;;;;8.50;2.20;;;1.70;76.80;;;;;;5074133;28;20032;-85
2022/02/25 06:59:47;;;;;;;7.47;1.63;;;1.80;76.70;;;;;;5073906;28;20025;-84
2022/02/25 07:02:13;;;;;;;5.25;1.85;;;1.80;76.30;;;;;;5056749;28;20033;-79
2022/02/25 07:04:39;;;;;;;7.50;1.92;;;1.90;76.10;;;;;;5072537;28;20463;-80
2022/02/25 07:07:05;;;;;;;8.57;2.20;;;1.90;74.30;;;;;;5073740;28;20111;-80
2022/02/25 07:09:30;;;;;;;7.57;1.90;;;1.90;72.50;;;;;;5073896;28;20063;-83
2022/02/25 07:11:56;;;;;;;9.88;2.58;;;2.00;72.90;;;;;;5073815;28;20040;-81
2022/02/25 07:14:21;;;;;;;10.90;2.40;;;2.10;73.40;;;;;;5073901;28;20476;-80
2022/02/25 07:16:47;;;;;;;10.60;2.35;;;2.20;73.50;;;;;;5073725;28;20031;-82
2022/02/25 07:19:12;;;;;;;10.70;2.70;;;2.30;73.20;;;;;;5073677;28;20099;-82
2022/02/25 07:21:38;;;;;;;7.93;2.35;;;2.30;72.50;;;;;;5055538;28;20085;-81
2022/02/25 07:24:04;;;;;;;8.70;2.20;;;2.40;72.50;;;;;;5073329;28;20044;-81
2022/02/25 07:26:31;;;;;;;10.60;2.90;;;2.50;72.50;;;;;;5073492;28;20028;-84
2022/02/25 07:28:56;;;;;;;13.43;3.45;;;2.50;71.60;;;;;;5073658;28;20028;-78
2022/02/25 07:31:22;;;;;;;11.90;1.83;;;2.50;71.10;;;;;;5057921;28;20124;-76
2022/02/25 07:33:47;;;;;;;17.77;2.78;;;2.40;74.50;;;;;;5072384;28;20059;-84
2022/02/25 07:36:13;;;;;;;7.80;1.35;;;3.30;84.70;;;;;;5073518;28;20034;-78
2022/02/25 07:38:38;;;;;;;12.48;1.95;;;3.50;73.40;;;;;;5073226;28;20099;-77
2022/02/25 07:41:04;;;;;;;7.80;1.70;;;4.00;74.50;;;;;;5073169;28;20029;-76
2022/02/25 07:43:30;;;;;;;8.52;1.40;;;4.40;71.70;;;;;;5072965;28;20038;-79
2022/02/25 07:45:55;;;;;;;5.15;1.38;;;4.70;64.20;;;;;;5073273;28;20051;-78
2022/02/25 07:48:21;;;;;;;9.75;1.58;;;5.00;63.80;;;;;;5073179;28;20354;-77
2022/02/25 07:50:48;;;;;;;13.13;1.60;;;5.20;61.00;;;;;;5072855;28;20031;-78
2022/02/25 07:53:14;;;;;;;11.68;1.75;;;5.30;59.40;;;;;;5055089;28;20081;-78
2022/02/25 07:55:41;;;;;;;3.53;0.95;;;5.40;56.90;;;;;;5072863;28;20446;-78
2022/02/25 07:58:06;;;;;;;8.75;1.20;;;4.80;53.90;;;;;;5072554;28;20029;-78
2022/02/25 08:00:32;;;;;;;13.55;2.90;;;4.70;58.40;;;;;;5071453;28;20046;-78
2022/02/25 08:03:02;;;;;;;5.55;1.02;;;4.90;57.70;;;;;;5072792;28;20019;-81
2022/02/25 08:05:29;;;;;;;6.72;1.73;;;4.50;55.00;;;;;;5072397;28;20029;-79
2022/02/25 08:08:00;;;;;;;10.77;2.50;;;4.10;56.30;;;;;;5072627;28;20059;-81
2022/02/25 08:10:26;;;;;;;12.40;1.63;;;3.80;57.20;;;;;;5072425;28;20025;-80
2022/02/25 08:12:52;;;;;;;21.90;2.10;;;3.70;57.90;;;;;;5054578;28;20107;-81
2022/02/25 08:15:17;;;;;;;12.25;2.33;;;3.50;59.40;;;;;;5072717;28;20477;-81
2022/02/25 08:17:43;;;;;;;11.75;1.83;;;3.40;59.80;;;;;;5072746;28;20055;-83
2022/02/25 08:20:10;;;;;;;9.85;1.40;;;3.50;59.30;;;;;;5073010;28;20477;-81
2022/02/25 08:22:36;;;;;;;10.32;1.45;;;3.40;58.20;;;;;;5072586;28;20482;-80
2022/02/25 08:25:03;;;;;;;9.50;1.88;;;3.40;59.10;;;;;;5072336;28;20056;-80
2022/02/25 08:27:28;;;;;;;7.50;2.20;;;3.40;59.70;;;;;;5072460;28;20032;-81
2022/02/25 08:29:54;;;;;;;7.47;1.30;;;3.40;59.10;;;;;;5072323;28;20381;-81
2022/02/25 08:32:20;;;;;;;10.25;2.13;;;3.50;59.50;;;;;;5072395;28;20029;-81
2022/02/25 08:34:45;;;;;;;7.15;1.38;;;3.40;60.10;;;;;;5072473;28;20025;-80
2022/02/25 08:37:11;;;;;;;13.52;1.63;;;3.20;58.70;;;;;;5072444;28;20025;-79
2022/02/25 08:39:37;;;;;;;10.70;1.65;;;3.30;57.90;;;;;;5072234;28;20028;-81
2022/02/25 08:42:03;;;;;;;8.30;2.22;;;3.30;58.20;;;;;;5072482;28;20057;-80
2022/02/25 08:44:28;;;;;;;9.18;2.22;;;3.40;58.90;;;;;;5072285;28;20036;-80
2022/02/25 08:46:54;;;;;;;8.60;1.85;;;3.40;58.80;;;;;;5072433;28;20032;-80
2022/02/25 08:49:20;;;;;;;9.48;2.15;;;3.40;59.20;;;;;;5072137;28;20031;-80
2022/02/25 08:51:47;;;;;;;7.50;1.98;;;3.40;59.90;;;;;;5072124;28;20036;-81
2022/02/25 08:54:16;;;;;;;7.07;1.60;;;3.40;58.90;;;;;;5054086;28;20028;-80
2022/02/25 08:56:42;;;;;;;7.65;1.52;;;3.20;59.30;;;;;;5071750;28;20094;-81
2022/02/25 08:59:07;;;;;;;10.18;2.22;;;3.10;60.40;;;;;;5072201;28;20021;-79
2022/02/25 09:01:33;;;;;;;10.65;1.83;;;3.20;61.10;;;;;;5072035;28;20024;-80
2022/02/25 09:04:01;;;;;;;11.25;2.20;;;3.20;60.30;;;;;;5069929;28;20096;-80
2022/02/25 09:06:28;;;;;;;18.65;1.77;;;3.40;60.10;;;;;;5061556;28;20024;-80
2022/02/25 09:08:54;;;;;;;15.50;2.85;;;3.60;58.80;;;;;;5052567;28;20016;-80
2022/02/25 09:11:19;;;;;;;10.10;1.95;;;3.70;58.30;;;;;;5051883;28;20351;-79
2022/02/25 09:13:45;;;;;;;10.77;2.15;;;3.90;58.80;;;;;;5051891;28;20104;-79
2022/02/25 09:16:11;;;;;;;6.45;1.95;;;4.10;58.00;;;;;;5052784;28;20048;-80
2022/02/25 09:18:37;;;;;;;11.75;1.67;;;4.20;57.10;;;;;;5056051;28;20469;-80
2022/02/25 09:21:04;;;;;;;12.68;2.22;;;4.20;56.60;;;;;;5055560;28;20025;-80
2022/02/25 09:23:31;;;;;;;11.57;1.60;;;4.30;56.90;;;;;;5055465;28;20044;-80
2022/02/25 09:25:57;;;;;;;9.55;1.83;;;4.50;56.30;;;;;;5055471;28;20037;-80
2022/02/25 09:28:24;;;;;;;10.07;1.52;;;4.50;56.60;;;;;;5058276;28;20031;-79
2022/02/25 09:30:50;;;;;;;11.25;1.40;;;4.70;55.40;;;;;;5075245;28;20186;-80
2022/02/25 09:33:15;;;;;;;9.85;1.10;;;4.60;54.30;;;;;;5075357;28;20052;-81
2022/02/25 09:35:41;;;;;;;11.18;2.30;;;4.70;55.80;;;;;;5073734;28;20094;-79
2022/02/25 09:38:07;;;;;;;7.45;1.58;;;4.70;53.70;;;;;;5075112;28;20156;-79
2022/02/25 09:40:33;;;;;;;6.13;1.13;;;4.90;53.20;;;;;;5074767;28;20047;-78
2022/02/25 09:43:00;;;;;;;11.32;1.65;;;5.00;53.00;;;;;;5075167;28;20401;-79
2022/02/25 09:45:25;;;;;;;10.02;1.30;;;5.10;52.20;;;;;;5074968;28;20052;-80
2022/02/25 09:47:51;;;;;;;5.82;1.27;;;5.40;50.40;;;;;;5074513;28;20473;-79
2022/02/25 09:50:19;;;;;;;5.85;1.17;;;5.20;50.80;;;;;;5074904;28;20039;-79
2022/02/25 09:52:45;;;;;;;10.48;2.08;;;5.30;48.60;;;;;;5075046;28;20028;-77
2022/02/25 09:55:24;;;;;;;7.65;1.50;;;5.40;48.90;;;;;;5074944;28;20354;-77
2022/02/25 09:57:50;;;;;;;8.23;1.75;;;5.60;49.60;;;;;;5075417;28;20064;-77
2022/02/25 10:00:16;;;;;;;7.03;1.35;;;6.00;49.00;;;;;;5075600;28;20078;-78
2022/02/25 10:02:48;;;;;;;9.57;1.63;;;6.20;47.00;;;;;;5074360;28;20381;-79
2022/02/25 10:05:23;;;;;;;4.95;1.00;;;6.30;45.90;;;;;;5074826;28;20025;-80
2022/02/25 10:07:49;;;;;;;5.15;0.98;;;6.20;44.00;;;;;;5074291;28;20036;-81
2022/02/25 10:10:17;;;;;;;5.50;1.35;;;6.40;45.20;;;;;;5074087;28;20141;-81
2022/02/25 10:12:46;;;;;;;5.93;1.30;;;6.60;42.90;;;;;;5074182;28;20052;-82
2022/02/25 10:15:12;;;;;;;11.80;1.73;;;6.40;42.80;;;;;;5074876;28;20024;-80
2022/02/25 10:17:37;;;;;;;7.47;1.35;;;6.20;42.10;;;;;;5074438;28;20029;-81
2022/02/25 10:20:07;;;;;;;5.53;1.15;;;6.30;42.50;;;;;;5074293;28;20028;-80
2022/02/25 10:22:38;;;;;;;10.88;1.08;;;6.40;43.10;;;;;;5074292;28;20346;-80
2022/02/25 10:25:10;;;;;;;6.35;1.27;;;6.30;42.80;;;;;;5074146;28;20079;-80
2022/02/25 10:27:44;;;;;;;8.48;1.70;;;6.50;41.90;;;;;;5073587;28;20032;-81
2022/02/25 10:30:10;;;;;;;6.03;1.98;;;6.60;42.00;;;;;;5073980;28;20039;-80
2022/02/25 10:32:37;;;;;;;8.55;1.63;;;6.60;40.90;;;;;;5074155;28;20020;-79
2022/02/25 10:35:24;;;;;;;9.10;1.27;;;6.50;41.20;;;;;;5074097;28;20082;-79
2022/02/25 10:37:54;;;;;;;14.77;1.88;;;6.50;40.00;;;;;;5074003;28;20021;-80
2022/02/25 10:40:20;;;;;;;4.30;1.67;;;6.60;41.10;;;;;;5074000;28;20021;-80
2022/02/25 10:42:46;;;;;;;7.35;1.63;;;6.60;41.50;;;;;;5073886;28;20362;-80
2022/02/25 10:45:11;;;;;;;8.38;1.17;;;6.80;40.80;;;;;;5073814;28;20043;-80
2022/02/25 10:47:43;;;;;;;4.35;1.25;;;6.90;40.70;;;;;;5074748;28;20017;-80
2022/02/25 10:50:12;;;;;;;4.32;1.45;;;7.10;41.10;;;;;;5055830;28;20499;-80
2022/02/25 10:52:45;;;;;;;5.35;1.10;;;6.90;41.50;;;;;;5072410;28;20032;-81
2022/02/25 10:55:14;;;;;;;7.57;1.10;;;6.60;41.20;;;;;;5073817;28;20016;-81
2022/02/25 10:57:40;;;;;;;8.90;1.20;;;6.10;41.80;;;;;;5073491;28;20111;-82
2022/02/25 11:00:08;;;;;;;12.68;1.70;;;6.00;42.10;;;;;;5073792;28;20116;-79
2022/02/25 11:02:34;;;;;;;4.07;0.95;;;5.80;44.20;;;;;;5073348;28;20473;-80
2022/02/25 11:05:06;;;;;;;8.52;1.50;;;6.00;44.30;;;;;;5073413;28;20311;-80
2022/02/25 11:07:34;;;;;;;8.27;1.58;;;6.00;43.70;;;;;;5073516;28;20028;-80
2022/02/25 11:09:59;;;;;;;8.63;1.58;;;6.10;44.00;;;;;;5073081;28;20104;-81
2022/02/25 11:12:26;;;;;;;9.25;1.38;;;6.00;45.00;;;;;;5073336;28;20104;-82
2022/02/25 11:14:53;;;;;;;6.93;1.48;;;5.90;43.90;;;;;;5073145;28;20078;-82
2022/02/25 11:17:20;;;;;;;12.45;1.58;;;5.90;42.80;;;;;;5073201;28;20028;-77
2022/02/25 11:19:47;;;;;;;7.50;1.33;;;5.90;43.20;;;;;;5072867;28;20021;-78
2022/02/25 11:22:14;;;;;;;8.98;1.40;;;5.80;43.70;;;;;;5073239;28;20473;-79
2022/02/25 11:24:41;;;;;;;11.15;2.63;;;5.70;43.40;;;;;;5072498;28;20053;-80
2022/02/25 11:27:07;;;;;;;6.25;1.13;;;5.70;44.10;;;;;;5055343;28;20122;-78
2022/02/25 11:29:45;;;;;;;6.50;1.15;;;5.70;43.90;;;;;;5055441;28;20025;-80
2022/02/25 11:32:13;;;;;;;9.30;1.20;;;5.80;43.90;;;;;;5073065;28;20032;-79
2022/02/25 11:34:40;;;;;;;8.35;1.35;;;5.80;44.40;;;;;;5072692;28;20020;-81
2022/02/25 11:37:05;;;;;;;8.52;1.25;;;5.60;44.90;;;;;;5071517;28;20037;-78
2022/02/25 11:39:31;;;;;;;9.63;1.70;;;5.50;45.20;;;;;;5072391;28;20020;-78
2022/02/25 11:42:00;;;;;;;9.25;1.70;;;5.50;44.40;;;;;;5072873;28;20066;-77
2022/02/25 11:44:27;;;;;;;9.25;1.48;;;5.70;44.10;;;;;;5073007;28;20472;-79
2022/02/25 11:46:54;;;;;;;7.43;1.40;;;5.60;43.30;;;;;;5073113;28;20029;-80
2022/02/25 11:49:27;;;;;;;7.13;1.23;;;5.60;43.10;;;;;;5072817;28;20052;-78
2022/02/25 11:51:52;;;;;;;6.80;1.40;;;5.40;43.90;;;;;;5072611;28;20393;-78
2022/02/25 11:57:04;;;;;;;7.63;1.38;;;5.20;45.40;;;;;;5072997;28;20384;-79
2022/02/25 11:59:32;;;;;;;12.52;1.60;;;5.00;46.10;;;;;;5072892;28;20538;-82
2022/02/25 12:02:19;;;;;;;11.25;1.25;;;5.10;46.20;;;;;;5071456;28;20021;-80
2022/02/25 12:04:54;;;;;;;7.50;1.05;;;5.10;45.90;;;;;;5072513;28;20032;-80
2022/02/25 12:07:38;;;;;;;10.45;1.42;;;5.20;45.10;;;;;;5072777;28;20051;-80
2022/02/25 12:10:12;;;;;;;5.65;1.77;;;5.20;43.70;;;;;;5073094;28;20033;-80
2022/02/25 12:12:44;;;;;;;4.78;0.75;;;5.20;43.70;;;;;;5073032;28;20028;-80
2022/02/25 12:15:15;;;;;;;5.40;1.30;;;5.10;44.00;;;;;;5072992;28;20038;-81
2022/02/25 12:17:47;;;;;;;6.57;1.15;;;5.20;43.30;;;;;;5073051;28;20112;-81
2022/02/25 12:20:27;;;;;;;8.35;1.58;;;5.10;43.10;;;;;;5072821;28;20052;-80
2022/02/25 12:23:24;;;;;;;8.88;1.23;;;5.00;43.50;;;;;;5072534;28;20056;-80
2022/02/25 12:26:04;;;;;;;7.10;1.48;;;5.00;43.90;;;;;;5043910;28;20060;-80
2022/02/25 12:28:33;;;;;;;6.80;1.35;;;5.00;45.00;;;;;;5072818;28;20021;-78
2022/02/25 12:31:06;;;;;;;5.30;1.45;;;5.10;45.10;;;;;;5072800;28;20031;-80
2022/02/25 12:33:44;;;;;;;5.53;1.60;;;5.10;45.20;;;;;;5072787;28;20028;-80
2022/02/25 12:36:16;;;;;;;6.63;1.10;;;5.00;45.70;;;;;;5072717;28;20021;-81
2022/02/25 12:38:58;;;;;;;8.43;1.10;;;5.00;45.30;;;;;;5072287;28;20469;-79
2022/02/25 12:41:32;;;;;;;5.10;1.20;;;5.00;45.90;;;;;;5072794;28;20025;-80
2022/02/25 12:44:00;;;;;;;6.38;1.00;;;4.80;46.70;;;;;;5072861;28;20028;-79
2022/02/25 12:46:29;;;;;;;9.07;1.42;;;4.90;47.40;;;;;;5072322;28;20468;-80
2022/02/25 12:48:55;;;;;;;8.55;1.70;;;5.00;46.70;;;;;;5072444;28;20020;-80
2022/02/25 12:51:24;;;;;;;5.40;1.10;;;5.10;46.60;;;;;;5055669;28;20366;-79
2022/02/25 12:54:01;;;;;;;6.55;1.33;;;5.20;47.20;;;;;;5076540;28;20028;-79
2022/02/25 12:56:32;;;;;;;5.15;1.00;;;5.10;47.50;;;;;;5076817;28;20392;-79
2022/02/25 12:59:01;;;;;;;9.65;1.83;;;5.20;48.10;;;;;;5075971;28;20055;-79
2022/02/25 13:01:28;;;;;;;6.68;1.10;;;5.20;47.50;;;;;;5076346;28;20036;-78
2022/02/25 13:04:08;;;;;;;4.70;1.50;;;5.00;48.80;;;;;;5076054;28;20039;-79
2022/02/25 13:06:36;;;;;;;11.65;1.42;;;5.00;48.10;;;;;;5075956;28;20078;-79